sensor_id;sensor_type;location;lat;lon;timestamp;P1;durP1;ratioP1;P2;durP2;ratioP2
29712;SDS011;16623;53.632;10.016;2023-03-01T00:01:15;22.48;;;9.75;;
29712;SDS011;16623;53.632;10.016;2023-03-01T00:03:43;22.98;;;10.45;;
29712;SDS011;16623;53.632;10.016;2023-03-01T00:06:09;22.85;;;10.25;;
29712;SDS011;16623;53.632;10.016;2023-03-01T00:08:34;19.92;;;10.40;;
29712;SDS011;16623;53.632;10.016;2023-03-01T00:11:04;25.17;;;10.25;;
29712;SDS011;16623;53.632;10.016;2023-03-01T00:13:30;25.25;;;12.00;;
29712;SDS011;16623;53.632;10.016;2023-03-01T00:15:56;21.65;;;10.25;;
29712;SDS011;16623;53.632;10.016;2023-03-01T00:18:21;24.73;;;11.40;;
29712;SDS011;16623;53.632;10.016;2023-03-01T00:20:53;24.05;;;11.25;;
29712;SDS011;16623;53.632;10.016;2023-03-01T00:23:20;25.98;;;11.93;;
29712;SDS011;16623;53.632;10.016;2023-03-01T00:25:46;19.10;;;10.15;;
29712;SDS011;16623;53.632;10.016;2023-03-01T00:28:12;22.95;;;10.15;;
29712;SDS011;16623;53.632;10.016;2023-03-01T00:30:38;26.25;;;11.80;;
29712;SDS011;16623;53.632;10.016;2023-03-01T00:33:03;23.73;;;11.38;;
29712;SDS011;16623;53.632;10.016;2023-03-01T00:35:29;25.42;;;10.90;;
29712;SDS011;16623;53.632;10.016;2023-03-01T00:37:54;23.50;;;11.07;;
29712;SDS011;16623;53.632;10.016;2023-03-01T00:40:26;21.02;;;10.20;;
29712;SDS011;16623;53.632;10.016;2023-03-01T00:42:52;21.98;;;10.10;;
29712;SDS011;16623;53.632;10.016;2023-03-01T00:45:18;26.70;;;10.93;;
29712;SDS011;16623;53.632;10.016;2023-03-01T00:47:44;24.70;;;10.60;;
29712;SDS011;16623;53.632;10.016;2023-03-01T00:50:10;22.13;;;11.25;;
29712;SDS011;16623;53.632;10.016;2023-03-01T00:52:36;25.05;;;11.23;;
29712;SDS011;16623;53.632;10.016;2023-03-01T00:55:02;21.48;;;11.00;;
29712;SDS011;16623;53.632;10.016;2023-03-01T00:57:28;21.27;;;10.48;;
29712;SDS011;16623;53.632;10.016;2023-03-01T00:59:54;18.88;;;10.23;;
29712;SDS011;16623;53.632;10.016;2023-03-01T01:02:19;19.95;;;10.60;;
29712;SDS011;16623;53.632;10.016;2023-03-01T01:04:45;23.50;;;11.05;;
29712;SDS011;16623;53.632;10.016;2023-03-01T01:07:11;24.42;;;11.95;;
29712;SDS011;16623;53.632;10.016;2023-03-01T01:09:37;20.33;;;10.68;;
29712;SDS011;16623;53.632;10.016;2023-03-01T01:12:03;26.55;;;10.95;;
29712;SDS011;16623;53.632;10.016;2023-03-01T01:14:29;24.70;;;11.32;;
29712;SDS011;16623;53.632;10.016;2023-03-01T01:16:54;25.50;;;11.15;;
29712;SDS011;16623;53.632;10.016;2023-03-01T01:19:20;26.33;;;10.63;;
29712;SDS011;16623;53.632;10.016;2023-03-01T01:21:46;22.23;;;11.73;;
29712;SDS011;16623;53.632;10.016;2023-03-01T01:24:13;27.42;;;10.88;;
29712;SDS011;16623;53.632;10.016;2023-03-01T01:26:39;24.58;;;11.27;;
29712;SDS011;16623;53.632;10.016;2023-03-01T01:29:05;20.52;;;10.63;;
29712;SDS011;16623;53.632;10.016;2023-03-01T01:31:32;21.50;;;10.65;;
29712;SDS011;16623;53.632;10.016;2023-03-01T01:33:59;24.08;;;11.27;;
29712;SDS011;16623;53.632;10.016;2023-03-01T01:36:26;22.88;;;11.40;;
29712;SDS011;16623;53.632;10.016;2023-03-01T01:38:52;20.65;;;10.25;;
29712;SDS011;16623;53.632;10.016;2023-03-01T01:41:19;21.75;;;10.40;;
29712;SDS011;16623;53.632;10.016;2023-03-01T01:46:55;18.48;;;9.90;;
29712;SDS011;16623;53.632;10.016;2023-03-01T01:52:13;22.98;;;10.35;;
29712;SDS011;16623;53.632;10.016;2023-03-01T01:54:49;21.27;;;9.55;;
29712;SDS011;16623;53.632;10.016;2023-03-01T01:57:28;18.83;;;9.73;;
29712;SDS011;16623;53.632;10.016;2023-03-01T01:59:59;19.50;;;10.55;;
29712;SDS011;16623;53.632;10.016;2023-03-01T02:02:29;21.20;;;9.95;;
29712;SDS011;16623;53.632;10.016;2023-03-01T02:05:01;20.67;;;8.70;;
29712;SDS011;16623;53.632;10.016;2023-03-01T02:07:35;18.30;;;10.38;;
29712;SDS011;16623;53.632;10.016;2023-03-01T02:10:04;24.02;;;9.60;;
29712;SDS011;16623;53.632;10.016;2023-03-01T02:12:29;16.35;;;8.70;;
29712;SDS011;16623;53.632;10.016;2023-03-01T02:14:55;18.75;;;9.10;;
29712;SDS011;16623;53.632;10.016;2023-03-01T02:17:21;18.15;;;9.15;;
29712;SDS011;16623;53.632;10.016;2023-03-01T02:19:51;15.50;;;8.38;;
29712;SDS011;16623;53.632;10.016;2023-03-01T02:22:22;25.95;;;10.48;;
29712;SDS011;16623;53.632;10.016;2023-03-01T02:24:57;17.77;;;8.48;;
29712;SDS011;16623;53.632;10.016;2023-03-01T02:27:38;16.00;;;9.15;;
29712;SDS011;16623;53.632;10.016;2023-03-01T02:30:09;16.92;;;9.00;;
29712;SDS011;16623;53.632;10.016;2023-03-01T02:32:37;19.95;;;9.52;;
29712;SDS011;16623;53.632;10.016;2023-03-01T02:35:06;25.05;;;9.93;;
29712;SDS011;16623;53.632;10.016;2023-03-01T02:37:35;22.67;;;11.02;;
29712;SDS011;16623;53.632;10.016;2023-03-01T02:40:02;22.77;;;8.70;;
29712;SDS011;16623;53.632;10.016;2023-03-01T02:42:36;14.60;;;8.45;;
29712;SDS011;16623;53.632;10.016;2023-03-01T02:45:19;18.63;;;8.55;;
29712;SDS011;16623;53.632;10.016;2023-03-01T02:47:45;18.50;;;9.15;;
29712;SDS011;16623;53.632;10.016;2023-03-01T02:52:57;23.00;;;9.05;;
29712;SDS011;16623;53.632;10.016;2023-03-01T02:55:31;22.17;;;8.77;;
29712;SDS011;16623;53.632;10.016;2023-03-01T02:57:57;17.02;;;8.57;;
29712;SDS011;16623;53.632;10.016;2023-03-01T03:00:28;17.48;;;9.05;;
29712;SDS011;16623;53.632;10.016;2023-03-01T03:03:00;14.85;;;8.85;;
29712;SDS011;16623;53.632;10.016;2023-03-01T03:05:27;15.73;;;8.65;;
29712;SDS011;16623;53.632;10.016;2023-03-01T03:07:54;21.35;;;10.32;;
29712;SDS011;16623;53.632;10.016;2023-03-01T03:10:22;13.85;;;8.20;;
29712;SDS011;16623;53.632;10.016;2023-03-01T03:12:55;15.93;;;8.90;;
29712;SDS011;16623;53.632;10.016;2023-03-01T03:15:22;20.50;;;9.80;;
29712;SDS011;16623;53.632;10.016;2023-03-01T03:17:49;16.38;;;8.57;;
29712;SDS011;16623;53.632;10.016;2023-03-01T03:20:16;15.82;;;8.50;;
29712;SDS011;16623;53.632;10.016;2023-03-01T03:22:49;16.65;;;8.95;;
29712;SDS011;16623;53.632;10.016;2023-03-01T03:25:34;16.55;;;8.63;;
29712;SDS011;16623;53.632;10.016;2023-03-01T03:28:03;18.60;;;8.98;;
29712;SDS011;16623;53.632;10.016;2023-03-01T03:30:34;19.50;;;8.50;;
29712;SDS011;16623;53.632;10.016;2023-03-01T03:33:03;14.10;;;9.07;;
29712;SDS011;16623;53.632;10.016;2023-03-01T03:35:30;18.27;;;10.10;;
29712;SDS011;16623;53.632;10.016;2023-03-01T03:37:59;16.60;;;9.27;;
29712;SDS011;16623;53.632;10.016;2023-03-01T03:43:05;16.58;;;8.52;;
29712;SDS011;16623;53.632;10.016;2023-03-01T03:45:43;19.23;;;9.57;;
29712;SDS011;16623;53.632;10.016;2023-03-01T03:48:10;19.10;;;9.10;;
29712;SDS011;16623;53.632;10.016;2023-03-01T03:50:36;18.92;;;9.27;;
29712;SDS011;16623;53.632;10.016;2023-03-01T03:53:03;18.08;;;9.43;;
29712;SDS011;16623;53.632;10.016;2023-03-01T03:55:31;23.45;;;10.30;;
29712;SDS011;16623;53.632;10.016;2023-03-01T03:57:58;18.67;;;9.82;;
29712;SDS011;16623;53.632;10.016;2023-03-01T04:00:31;17.98;;;9.52;;
29712;SDS011;16623;53.632;10.016;2023-03-01T04:02:58;20.08;;;9.23;;
29712;SDS011;16623;53.632;10.016;2023-03-01T04:05:24;19.45;;;10.23;;
29712;SDS011;16623;53.632;10.016;2023-03-01T04:07:49;23.30;;;10.02;;
29712;SDS011;16623;53.632;10.016;2023-03-01T04:10:25;12.82;;;8.93;;
29712;SDS011;16623;53.632;10.016;2023-03-01T04:12:52;20.60;;;10.13;;
29712;SDS011;16623;53.632;10.016;2023-03-01T04:15:17;16.08;;;9.77;;
29712;SDS011;16623;53.632;10.016;2023-03-01T04:17:44;14.77;;;8.85;;
29712;SDS011;16623;53.632;10.016;2023-03-01T04:20:12;15.40;;;9.38;;
29712;SDS011;16623;53.632;10.016;2023-03-01T04:22:42;19.58;;;9.15;;
29712;SDS011;16623;53.632;10.016;2023-03-01T04:25:11;21.27;;;9.48;;
29712;SDS011;16623;53.632;10.016;2023-03-01T04:27:39;18.65;;;9.13;;
29712;SDS011;16623;53.632;10.016;2023-03-01T04:30:05;23.17;;;9.13;;
29712;SDS011;16623;53.632;10.016;2023-03-01T04:32:32;20.65;;;8.90;;
29712;SDS011;16623;53.632;10.016;2023-03-01T04:34:58;17.30;;;9.32;;
29712;SDS011;16623;53.632;10.016;2023-03-01T04:37:24;16.85;;;8.57;;
29712;SDS011;16623;53.632;10.016;2023-03-01T04:39:50;23.63;;;11.00;;
29712;SDS011;16623;53.632;10.016;2023-03-01T04:42:15;17.55;;;9.90;;
29712;SDS011;16623;53.632;10.016;2023-03-01T04:44:44;21.80;;;9.07;;
29712;SDS011;16623;53.632;10.016;2023-03-01T04:47:11;18.70;;;8.93;;
29712;SDS011;16623;53.632;10.016;2023-03-01T04:49:37;17.45;;;9.02;;
29712;SDS011;16623;53.632;10.016;2023-03-01T04:52:02;16.65;;;8.40;;
29712;SDS011;16623;53.632;10.016;2023-03-01T04:54:29;21.50;;;9.02;;
29712;SDS011;16623;53.632;10.016;2023-03-01T04:56:56;17.45;;;9.02;;
29712;SDS011;16623;53.632;10.016;2023-03-01T04:59:22;19.33;;;8.25;;
29712;SDS011;16623;53.632;10.016;2023-03-01T05:01:48;20.23;;;9.50;;
29712;SDS011;16623;53.632;10.016;2023-03-01T05:04:15;18.63;;;9.32;;
29712;SDS011;16623;53.632;10.016;2023-03-01T05:06:40;18.27;;;7.70;;
29712;SDS011;16623;53.632;10.016;2023-03-01T05:09:06;15.55;;;9.10;;
29712;SDS011;16623;53.632;10.016;2023-03-01T05:11:31;21.40;;;8.95;;
29712;SDS011;16623;53.632;10.016;2023-03-01T05:14:00;17.77;;;8.73;;
29712;SDS011;16623;53.632;10.016;2023-03-01T05:16:27;15.55;;;8.32;;
29712;SDS011;16623;53.632;10.016;2023-03-01T05:18:52;17.73;;;7.95;;
29712;SDS011;16623;53.632;10.016;2023-03-01T05:21:20;18.30;;;8.82;;
29712;SDS011;16623;53.632;10.016;2023-03-01T05:23:46;19.75;;;9.23;;
29712;SDS011;16623;53.632;10.016;2023-03-01T05:26:12;16.55;;;9.25;;
29712;SDS011;16623;53.632;10.016;2023-03-01T05:28:38;15.65;;;8.35;;
29712;SDS011;16623;53.632;10.016;2023-03-01T05:31:04;20.58;;;8.05;;
29712;SDS011;16623;53.632;10.016;2023-03-01T05:33:34;23.27;;;9.90;;
29712;SDS011;16623;53.632;10.016;2023-03-01T05:36:05;16.95;;;7.85;;
29712;SDS011;16623;53.632;10.016;2023-03-01T05:38:34;19.27;;;9.77;;
29712;SDS011;16623;53.632;10.016;2023-03-01T05:41:00;22.23;;;8.65;;
29712;SDS011;16623;53.632;10.016;2023-03-01T05:43:29;16.23;;;7.47;;
29712;SDS011;16623;53.632;10.016;2023-03-01T05:45:57;21.50;;;8.15;;
29712;SDS011;16623;53.632;10.016;2023-03-01T05:48:23;17.98;;;8.07;;
29712;SDS011;16623;53.632;10.016;2023-03-01T05:50:48;16.40;;;7.03;;
29712;SDS011;16623;53.632;10.016;2023-03-01T05:53:18;20.65;;;7.72;;
29712;SDS011;16623;53.632;10.016;2023-03-01T05:55:46;13.82;;;8.23;;
29712;SDS011;16623;53.632;10.016;2023-03-01T05:58:16;20.10;;;7.50;;
29712;SDS011;16623;53.632;10.016;2023-03-01T06:00:44;17.02;;;7.70;;
29712;SDS011;16623;53.632;10.016;2023-03-01T06:03:12;20.00;;;8.57;;
29712;SDS011;16623;53.632;10.016;2023-03-01T06:05:39;19.35;;;8.45;;
29712;SDS011;16623;53.632;10.016;2023-03-01T06:08:05;12.98;;;7.72;;
29712;SDS011;16623;53.632;10.016;2023-03-01T06:10:31;16.67;;;8.38;;
29712;SDS011;16623;53.632;10.016;2023-03-01T06:12:57;15.95;;;8.98;;
29712;SDS011;16623;53.632;10.016;2023-03-01T06:15:23;16.75;;;7.25;;
29712;SDS011;16623;53.632;10.016;2023-03-01T06:17:49;21.33;;;7.35;;
29712;SDS011;16623;53.632;10.016;2023-03-01T06:20:20;25.55;;;8.07;;
29712;SDS011;16623;53.632;10.016;2023-03-01T06:22:47;17.75;;;8.15;;
29712;SDS011;16623;53.632;10.016;2023-03-01T06:25:15;16.67;;;8.48;;
29712;SDS011;16623;53.632;10.016;2023-03-01T06:27:42;25.90;;;8.75;;
29712;SDS011;16623;53.632;10.016;2023-03-01T06:30:09;17.45;;;7.85;;
29712;SDS011;16623;53.632;10.016;2023-03-01T06:32:37;21.35;;;7.57;;
29712;SDS011;16623;53.632;10.016;2023-03-01T06:35:03;15.55;;;8.23;;
29712;SDS011;16623;53.632;10.016;2023-03-01T06:37:30;16.02;;;8.10;;
29712;SDS011;16623;53.632;10.016;2023-03-01T06:39:55;27.42;;;9.15;;
29712;SDS011;16623;53.632;10.016;2023-03-01T06:42:20;16.58;;;8.88;;
29712;SDS011;16623;53.632;10.016;2023-03-01T06:44:46;18.52;;;8.38;;
29712;SDS011;16623;53.632;10.016;2023-03-01T06:47:12;18.73;;;9.75;;
29712;SDS011;16623;53.632;10.016;2023-03-01T06:49:37;14.13;;;8.25;;
29712;SDS011;16623;53.632;10.016;2023-03-01T06:52:03;18.88;;;8.00;;
29712;SDS011;16623;53.632;10.016;2023-03-01T06:54:28;18.70;;;8.65;;
29712;SDS011;16623;53.632;10.016;2023-03-01T06:56:54;16.10;;;9.38;;
29712;SDS011;16623;53.632;10.016;2023-03-01T06:59:20;15.85;;;8.45;;
29712;SDS011;16623;53.632;10.016;2023-03-01T07:01:45;19.85;;;8.02;;
29712;SDS011;16623;53.632;10.016;2023-03-01T07:04:11;20.85;;;8.85;;
29712;SDS011;16623;53.632;10.016;2023-03-01T07:06:38;15.43;;;9.73;;
29712;SDS011;16623;53.632;10.016;2023-03-01T07:09:04;17.15;;;7.57;;
29712;SDS011;16623;53.632;10.016;2023-03-01T07:11:30;18.17;;;7.72;;
29712;SDS011;16623;53.632;10.016;2023-03-01T07:13:55;15.38;;;8.15;;
29712;SDS011;16623;53.632;10.016;2023-03-01T07:16:21;19.08;;;8.13;;
29712;SDS011;16623;53.632;10.016;2023-03-01T07:18:46;14.00;;;8.43;;
29712;SDS011;16623;53.632;10.016;2023-03-01T07:21:13;15.10;;;7.30;;
29712;SDS011;16623;53.632;10.016;2023-03-01T07:23:39;17.42;;;9.13;;
29712;SDS011;16623;53.632;10.016;2023-03-01T07:26:05;12.95;;;7.50;;
29712;SDS011;16623;53.632;10.016;2023-03-01T07:28:31;21.38;;;8.18;;
29712;SDS011;16623;53.632;10.016;2023-03-01T07:31:01;18.60;;;7.72;;
29712;SDS011;16623;53.632;10.016;2023-03-01T07:33:27;14.82;;;6.93;;
29712;SDS011;16623;53.632;10.016;2023-03-01T07:36:00;17.40;;;6.80;;
29712;SDS011;16623;53.632;10.016;2023-03-01T07:38:28;15.55;;;8.68;;
29712;SDS011;16623;53.632;10.016;2023-03-01T07:40:57;20.92;;;8.18;;
29712;SDS011;16623;53.632;10.016;2023-03-01T07:43:24;18.38;;;8.70;;
29712;SDS011;16623;53.632;10.016;2023-03-01T07:45:49;20.88;;;8.55;;
29712;SDS011;16623;53.632;10.016;2023-03-01T07:48:15;22.30;;;12.35;;
29712;SDS011;16623;53.632;10.016;2023-03-01T07:50:41;22.08;;;9.73;;
29712;SDS011;16623;53.632;10.016;2023-03-01T07:53:07;21.30;;;10.57;;
29712;SDS011;16623;53.632;10.016;2023-03-01T07:55:33;16.70;;;10.00;;
29712;SDS011;16623;53.632;10.016;2023-03-01T07:57:58;19.63;;;10.25;;
29712;SDS011;16623;53.632;10.016;2023-03-01T08:00:24;29.80;;;12.68;;
29712;SDS011;16623;53.632;10.016;2023-03-01T08:02:49;18.67;;;10.40;;
29712;SDS011;16623;53.632;10.016;2023-03-01T08:05:15;17.67;;;9.40;;
29712;SDS011;16623;53.632;10.016;2023-03-01T08:07:40;17.58;;;10.88;;
29712;SDS011;16623;53.632;10.016;2023-03-01T08:10:06;20.50;;;12.40;;
29712;SDS011;16623;53.632;10.016;2023-03-01T08:12:32;21.38;;;11.35;;
29712;SDS011;16623;53.632;10.016;2023-03-01T08:14:58;23.17;;;11.70;;
29712;SDS011;16623;53.632;10.016;2023-03-01T08:17:23;29.38;;;13.48;;
29712;SDS011;16623;53.632;10.016;2023-03-01T08:19:49;23.23;;;12.93;;
29712;SDS011;16623;53.632;10.016;2023-03-01T08:22:15;19.77;;;11.45;;
29712;SDS011;16623;53.632;10.016;2023-03-01T08:24:40;25.67;;;11.88;;
29712;SDS011;16623;53.632;10.016;2023-03-01T08:27:06;29.08;;;13.50;;
29712;SDS011;16623;53.632;10.016;2023-03-01T08:29:32;29.23;;;12.65;;
29712;SDS011;16623;53.632;10.016;2023-03-01T08:31:58;22.38;;;14.20;;
29712;SDS011;16623;53.632;10.016;2023-03-01T08:34:24;27.48;;;11.73;;
29712;SDS011;16623;53.632;10.016;2023-03-01T08:36:49;19.55;;;11.18;;
29712;SDS011;16623;53.632;10.016;2023-03-01T08:39:16;18.55;;;11.98;;
29712;SDS011;16623;53.632;10.016;2023-03-01T08:41:44;20.00;;;11.43;;
29712;SDS011;16623;53.632;10.016;2023-03-01T08:44:11;21.27;;;11.60;;
29712;SDS011;16623;53.632;10.016;2023-03-01T08:46:39;25.73;;;11.68;;
29712;SDS011;16623;53.632;10.016;2023-03-01T08:49:06;18.63;;;11.95;;
29712;SDS011;16623;53.632;10.016;2023-03-01T08:51:33;19.58;;;11.13;;
29712;SDS011;16623;53.632;10.016;2023-03-01T08:54:02;20.65;;;12.88;;
29712;SDS011;16623;53.632;10.016;2023-03-01T08:56:32;22.13;;;11.90;;
29712;SDS011;16623;53.632;10.016;2023-03-01T08:58:58;21.52;;;11.73;;
29712;SDS011;16623;53.632;10.016;2023-03-01T09:01:24;20.58;;;12.27;;
29712;SDS011;16623;53.632;10.016;2023-03-01T09:03:49;21.45;;;11.73;;
29712;SDS011;16623;53.632;10.016;2023-03-01T09:06:15;21.25;;;12.00;;
29712;SDS011;16623;53.632;10.016;2023-03-01T09:08:42;18.85;;;11.55;;
29712;SDS011;16623;53.632;10.016;2023-03-01T09:11:10;20.65;;;11.82;;
29712;SDS011;16623;53.632;10.016;2023-03-01T09:13:36;22.52;;;12.07;;
29712;SDS011;16623;53.632;10.016;2023-03-01T09:16:02;20.55;;;11.77;;
29712;SDS011;16623;53.632;10.016;2023-03-01T09:18:30;19.45;;;11.63;;
29712;SDS011;16623;53.632;10.016;2023-03-01T09:21:03;19.35;;;12.10;;
29712;SDS011;16623;53.632;10.016;2023-03-01T09:23:37;22.17;;;13.15;;
29712;SDS011;16623;53.632;10.016;2023-03-01T09:26:08;24.73;;;11.70;;
29712;SDS011;16623;53.632;10.016;2023-03-01T09:28:35;20.67;;;11.35;;
29712;SDS011;16623;53.632;10.016;2023-03-01T09:31:01;22.13;;;12.60;;
29712;SDS011;16623;53.632;10.016;2023-03-01T09:33:29;25.17;;;12.57;;
29712;SDS011;16623;53.632;10.016;2023-03-01T09:35:58;22.98;;;12.85;;
29712;SDS011;16623;53.632;10.016;2023-03-01T09:38:29;20.57;;;12.33;;
29712;SDS011;16623;53.632;10.016;2023-03-01T09:40:55;21.15;;;12.38;;
29712;SDS011;16623;53.632;10.016;2023-03-01T09:45:53;23.92;;;12.02;;
29712;SDS011;16623;53.632;10.016;2023-03-01T09:48:23;21.08;;;12.48;;
29712;SDS011;16623;53.632;10.016;2023-03-01T09:50:51;26.63;;;13.20;;
29712;SDS011;16623;53.632;10.016;2023-03-01T09:53:18;22.60;;;12.55;;
29712;SDS011;16623;53.632;10.016;2023-03-01T09:55:51;20.38;;;12.75;;
29712;SDS011;16623;53.632;10.016;2023-03-01T10:07:06;21.75;;;13.10;;
29712;SDS011;16623;53.632;10.016;2023-03-01T10:09:54;21.10;;;13.07;;
29712;SDS011;16623;53.632;10.016;2023-03-01T10:12:20;23.25;;;13.27;;
29712;SDS011;16623;53.632;10.016;2023-03-01T10:17:30;23.73;;;11.98;;
29712;SDS011;16623;53.632;10.016;2023-03-01T10:22:46;22.80;;;12.77;;
29712;SDS011;16623;53.632;10.016;2023-03-01T10:25:15;16.80;;;10.07;;
29712;SDS011;16623;53.632;10.016;2023-03-01T10:28:05;18.73;;;10.98;;
29712;SDS011;16623;53.632;10.016;2023-03-01T10:31:12;16.90;;;9.63;;
29712;SDS011;16623;53.632;10.016;2023-03-01T10:33:42;17.60;;;9.73;;
29712;SDS011;16623;53.632;10.016;2023-03-01T10:36:08;17.15;;;10.02;;
29712;SDS011;16623;53.632;10.016;2023-03-01T10:38:48;16.70;;;9.90;;
29712;SDS011;16623;53.632;10.016;2023-03-01T10:41:19;15.98;;;9.43;;
29712;SDS011;16623;53.632;10.016;2023-03-01T10:46:29;17.27;;;9.20;;
29712;SDS011;16623;53.632;10.016;2023-03-01T10:52:11;19.55;;;9.82;;
29712;SDS011;16623;53.632;10.016;2023-03-01T10:54:50;14.38;;;9.35;;
29712;SDS011;16623;53.632;10.016;2023-03-01T10:57:28;15.75;;;10.30;;
29712;SDS011;16623;53.632;10.016;2023-03-01T11:02:45;14.00;;;9.27;;
29712;SDS011;16623;53.632;10.016;2023-03-01T11:05:21;23.70;;;9.85;;
29712;SDS011;16623;53.632;10.016;2023-03-01T11:07:55;16.25;;;9.85;;
29712;SDS011;16623;53.632;10.016;2023-03-01T11:10:23;23.27;;;9.45;;
29712;SDS011;16623;53.632;10.016;2023-03-01T11:13:05;17.38;;;10.05;;
29712;SDS011;16623;53.632;10.016;2023-03-01T11:15:58;24.20;;;10.82;;
29712;SDS011;16623;53.632;10.016;2023-03-01T11:18:29;16.98;;;9.35;;
29712;SDS011;16623;53.632;10.016;2023-03-01T11:20:55;20.50;;;9.13;;
29712;SDS011;16623;53.632;10.016;2023-03-01T11:23:23;14.45;;;8.52;;
29712;SDS011;16623;53.632;10.016;2023-03-01T11:26:23;13.23;;;8.38;;
29712;SDS011;16623;53.632;10.016;2023-03-01T11:28:43;12.55;;;8.43;;
29712;SDS011;16623;53.632;10.016;2023-03-01T11:31:24;11.48;;;7.97;;
29712;SDS011;16623;53.632;10.016;2023-03-01T11:39:22;15.63;;;8.35;;
29712;SDS011;16623;53.632;10.016;2023-03-01T11:42:05;11.73;;;8.30;;
29712;SDS011;16623;53.632;10.016;2023-03-01T11:44:37;12.00;;;7.50;;
29712;SDS011;16623;53.632;10.016;2023-03-01T11:47:15;13.43;;;7.57;;
29712;SDS011;16623;53.632;10.016;2023-03-01T11:55:11;11.25;;;7.38;;
29712;SDS011;16623;53.632;10.016;2023-03-01T11:57:53;13.18;;;7.38;;
29712;SDS011;16623;53.632;10.016;2023-03-01T12:05:51;11.02;;;5.80;;
29712;SDS011;16623;53.632;10.016;2023-03-01T12:25:27;10.90;;;7.32;;
29712;SDS011;16623;53.632;10.016;2023-03-01T12:34:01;12.48;;;7.18;;
29712;SDS011;16623;53.632;10.016;2023-03-01T12:39:23;12.25;;;7.68;;
29712;SDS011;16623;53.632;10.016;2023-03-01T12:42:24;13.25;;;8.27;;
29712;SDS011;16623;53.632;10.016;2023-03-01T12:45:30;17.88;;;8.93;;
29712;SDS011;16623;53.632;10.016;2023-03-01T12:50:48;13.05;;;8.13;;
29712;SDS011;16623;53.632;10.016;2023-03-01T12:53:23;11.40;;;7.25;;
29712;SDS011;16623;53.632;10.016;2023-03-01T12:55:49;15.48;;;8.57;;
29712;SDS011;16623;53.632;10.016;2023-03-01T13:03:51;14.73;;;7.32;;
29712;SDS011;16623;53.632;10.016;2023-03-01T13:20:19;12.20;;;6.82;;
29712;SDS011;16623;53.632;10.016;2023-03-01T13:22:49;9.55;;;7.30;;
29712;SDS011;16623;53.632;10.016;2023-03-01T13:25:27;10.32;;;6.85;;
29712;SDS011;16623;53.632;10.016;2023-03-01T13:27:52;12.55;;;7.70;;
29712;SDS011;16623;53.632;10.016;2023-03-01T13:30:56;11.02;;;6.65;;
29712;SDS011;16623;53.632;10.016;2023-03-01T13:33:33;11.32;;;7.72;;
29712;SDS011;16623;53.632;10.016;2023-03-01T13:36:05;9.35;;;6.97;;
29712;SDS011;16623;53.632;10.016;2023-03-01T13:41:58;12.27;;;6.38;;
29712;SDS011;16623;53.632;10.016;2023-03-01T13:47:05;12.45;;;6.72;;
29712;SDS011;16623;53.632;10.016;2023-03-01T13:49:48;8.48;;;6.03;;
29712;SDS011;16623;53.632;10.016;2023-03-01T13:52:33;9.85;;;5.35;;
29712;SDS011;16623;53.632;10.016;2023-03-01T13:55:18;8.50;;;5.38;;
29712;SDS011;16623;53.632;10.016;2023-03-01T13:57:51;8.50;;;5.43;;
29712;SDS011;16623;53.632;10.016;2023-03-01T14:03:13;8.60;;;5.18;;
29712;SDS011;16623;53.632;10.016;2023-03-01T14:05:42;7.10;;;5.13;;
29712;SDS011;16623;53.632;10.016;2023-03-01T14:08:29;12.25;;;5.10;;
29712;SDS011;16623;53.632;10.016;2023-03-01T14:11:09;10.68;;;5.65;;
29712;SDS011;16623;53.632;10.016;2023-03-01T14:19:27;8.90;;;4.82;;
29712;SDS011;16623;53.632;10.016;2023-03-01T14:24:56;10.18;;;5.85;;
29712;SDS011;16623;53.632;10.016;2023-03-01T14:27:33;12.02;;;5.82;;
29712;SDS011;16623;53.632;10.016;2023-03-01T14:30:10;12.80;;;4.82;;
29712;SDS011;16623;53.632;10.016;2023-03-01T14:32:48;13.20;;;5.60;;
29712;SDS011;16623;53.632;10.016;2023-03-01T14:35:27;8.73;;;5.68;;
29712;SDS011;16623;53.632;10.016;2023-03-01T14:37:55;12.05;;;6.63;;
29712;SDS011;16623;53.632;10.016;2023-03-01T14:40:28;9.10;;;5.65;;
29712;SDS011;16623;53.632;10.016;2023-03-01T14:42:58;8.20;;;4.95;;
29712;SDS011;16623;53.632;10.016;2023-03-01T14:45:28;8.80;;;5.72;;
29712;SDS011;16623;53.632;10.016;2023-03-01T14:47:55;10.88;;;5.78;;
29712;SDS011;16623;53.632;10.016;2023-03-01T14:50:33;11.43;;;5.63;;
29712;SDS011;16623;53.632;10.016;2023-03-01T14:53:01;7.78;;;5.57;;
29712;SDS011;16623;53.632;10.016;2023-03-01T14:55:30;8.57;;;5.78;;
29712;SDS011;16623;53.632;10.016;2023-03-01T14:57:59;8.85;;;5.60;;
29712;SDS011;16623;53.632;10.016;2023-03-01T15:00:34;11.73;;;5.82;;
29712;SDS011;16623;53.632;10.016;2023-03-01T15:03:23;9.85;;;5.90;;
29712;SDS011;16623;53.632;10.016;2023-03-01T15:05:49;7.20;;;3.80;;
29712;SDS011;16623;53.632;10.016;2023-03-01T15:08:17;6.68;;;4.03;;
29712;SDS011;16623;53.632;10.016;2023-03-01T15:10:58;5.43;;;3.53;;
29712;SDS011;16623;53.632;10.016;2023-03-01T15:13:48;7.00;;;4.80;;
29712;SDS011;16623;53.632;10.016;2023-03-01T15:16:18;6.32;;;4.13;;
29712;SDS011;16623;53.632;10.016;2023-03-01T15:18:48;10.15;;;6.00;;
29712;SDS011;16623;53.632;10.016;2023-03-01T15:21:24;10.57;;;4.70;;
29712;SDS011;16623;53.632;10.016;2023-03-01T15:23:54;7.90;;;4.57;;
29712;SDS011;16623;53.632;10.016;2023-03-01T15:26:29;8.00;;;5.15;;
29712;SDS011;16623;53.632;10.016;2023-03-01T15:28:58;9.48;;;4.68;;
29712;SDS011;16623;53.632;10.016;2023-03-01T15:31:26;8.13;;;5.22;;
29712;SDS011;16623;53.632;10.016;2023-03-01T15:34:10;8.75;;;4.93;;
29712;SDS011;16623;53.632;10.016;2023-03-01T15:36:51;7.70;;;4.57;;
29712;SDS011;16623;53.632;10.016;2023-03-01T15:42:35;8.23;;;5.15;;
29712;SDS011;16623;53.632;10.016;2023-03-01T15:45:09;9.23;;;4.82;;
29712;SDS011;16623;53.632;10.016;2023-03-01T15:47:38;6.78;;;4.55;;
29712;SDS011;16623;53.632;10.016;2023-03-01T15:50:05;12.63;;;6.22;;
29712;SDS011;16623;53.632;10.016;2023-03-01T15:52:45;9.65;;;5.82;;
29712;SDS011;16623;53.632;10.016;2023-03-01T15:55:21;11.18;;;5.78;;
29712;SDS011;16623;53.632;10.016;2023-03-01T15:57:58;10.55;;;7.00;;
29712;SDS011;16623;53.632;10.016;2023-03-01T16:00:27;11.90;;;6.40;;
29712;SDS011;16623;53.632;10.016;2023-03-01T16:02:54;14.43;;;7.18;;
29712;SDS011;16623;53.632;10.016;2023-03-01T16:07:56;12.20;;;7.05;;
29712;SDS011;16623;53.632;10.016;2023-03-01T16:10:22;11.05;;;6.55;;
29712;SDS011;16623;53.632;10.016;2023-03-01T16:12:51;12.18;;;8.20;;
29712;SDS011;16623;53.632;10.016;2023-03-01T16:17:43;11.48;;;7.30;;
29712;SDS011;16623;53.632;10.016;2023-03-01T16:20:09;10.35;;;6.82;;
29712;SDS011;16623;53.632;10.016;2023-03-01T16:22:35;10.68;;;7.25;;
29712;SDS011;16623;53.632;10.016;2023-03-01T16:25:01;16.60;;;9.50;;
29712;SDS011;16623;53.632;10.016;2023-03-01T16:27:27;14.80;;;9.20;;
29712;SDS011;16623;53.632;10.016;2023-03-01T16:29:53;14.45;;;9.27;;
29712;SDS011;16623;53.632;10.016;2023-03-01T16:32:18;18.20;;;9.68;;
29712;SDS011;16623;53.632;10.016;2023-03-01T16:34:44;18.58;;;10.20;;
29712;SDS011;16623;53.632;10.016;2023-03-01T16:37:09;18.08;;;10.65;;
29712;SDS011;16623;53.632;10.016;2023-03-01T16:39:37;21.30;;;11.57;;